Aviation Digital Data Service (ADDS)

Output produced by METARs form (1554 UTC 23 April 2017)
found at http://www.aviationweather.gov/adds/metars/
 
RJSK 231200Z 00000KT 9999 FEW025 06/03 Q1023
TAF RJSK 231105Z 2312/2418 13004KT 9999 FEW020 
     BECMG 2403/2406 29007KT 
     BECMG 2409/2412 13007KT
       
RJKA 231000Z 05008KT 9999 FEW035 BKN/// 21/13 Q1015
RJSA 231200Z 21006KT 9999 FEW030 SCT/// 03/01 Q1022
TAF RJSA 231105Z 2312/2418 21005KT 9999 FEW030 
     BECMG 2403/2406 03005KT 
     BECMG 2412/2415 21010KT
       
RJEC 231100Z 31007KT 9999 FEW030 SCT/// 02/M01 Q1020
TAF RJEC 231109Z 2312/2418 32005KT 9999 FEW010 
     BECMG 2320/2322 17005KT
       
RJFF 231530Z AUTO 13002KT 9999 NCD 13/05 Q1019 RMK A3010
TAF RJFF 231106Z 2312/2418 14004KT CAVOK 
     BECMG 2403/2406 33012KT 
     BECMG 2409/2412 15008KT
       
RJSF 231100Z 01006KT 9999 FEW050 07/M02 Q1021
TAF RJSF 231106Z 2312/2418 02007KT 9999 FEW040 
     BECMG 2318/2320 19005KT
       
ROTM 231458Z VRB06KT 9999 FEW030 19/08 A3003 RMK SLP156 STNPR29730 T01940078
TAF ROTM 2315/2415 VRB06KT 9999 SCT030 QNH3000INS 
     TEMPO 2320/2402 SCT020 T19/2315Z T24/2406Z
       
RJCH 231100Z 34004KT 310V010 9999 FEW025 07/M00 Q1021
TAF RJCH 231112Z 2312/2418 35005KT 9999 FEW030 
     BECMG 2322/2400 15008KT
       
RJSI 231000Z 29005KT 250V350 9999 FEW040 SCT060 09/02 Q1019
RJOA 231200Z VRB02KT CAVOK 14/00 Q1019
TAF RJOA 231105Z 2312/2418 03007KT CAVOK
       
RJAH 231500Z 32002KT 9999 FEW030 06/03 Q1023
TAF RJAH 231110Z 2312/2418 01006KT 9999 FEW020 
     BECMG 2322/2400 13010KT
       
ROIG 231100Z 36005KT 9999 SCT032 20/16 Q1015
TAF ROIG 231107Z 2312/2418 05006KT 9999 FEW020 SCT030
       
RJOI 231455Z 30005KT 9999 FEW030 12/05 A3013 RMK SLP204 T01170050 401780078 51010
TAF RJOI 2315/2415 VRB06KT 9999 FEW030 QNH3012INS 
     FM232100 VRB06KT 9999 FEW030 QNH3016INS 
     FM240300 VRB06KT 9999 FEW030 QNH3011INS 
     FM240900 VRB06KT 9999 FEW030 SCT050 QNH3013INS T09/2320Z T18/2405Z
       
RJOW 231000Z VRB02KT CAVOK 14/07 Q1018
RJAW 231500Z 06014KT 8000 BKN009 SCT015 22/20 Q1014 RMK 6ST009 4CU015 A2996
RJOC 231100Z 09011KT CAVOK 12/06 Q1019
TAF RJOC 231106Z 2312/2418 11006KT CAVOK 
     BECMG 2312/2314 17005KT 
     BECMG 2400/2403 04007KT 
     BECMG 2409/2412 17007KT
       
RODN 231458Z AUTO 07005KT 10SM CLR 14/14 A3003 RMK AO2 SLP176 T01430143 402470143 58001
TAF RODN 230900Z 2309/2415 06012KT 9999 SCT030 QNH2997INS WND 09009 AFT 2318 TX27/2406Z TN18/2321Z
       
RJFK 231200Z 08004KT 9999 FEW040 14/08 Q1019 RMK 1CU040 A3010
TAF RJFK 231105Z 2312/2418 03004KT 9999 FEW040 SCT050 
     BECMG 2321/2323 10010KT
       
RJBB 231530Z AUTO 08005KT 9999 NCD 13/05 Q1021 NOSIG
TAF RJBB 231108Z 2312/2418 06009KT CAVOK 
     BECMG 2403/2406 22007KT 
     BECMG 2415/2418 11007KT
       
RJFR 231500Z VRB01KT 9999 FEW030 13/04 Q1019
TAF RJFR 231112Z 2312/2418 34005KT 9999 FEW030 
     BECMG 2312/2314 11003KT 
     BECMG 2400/2403 07009KT 
     BECMG 2409/2412 13008KT
       
RJOK 231100Z 01004KT 9999 FEW030 14/04 Q1019
TAF RJOK 231106Z 2312/2418 35008KT CAVOK 
     BECMG 2400/2403 18006KT
       
RJNK 231500Z 13003KT 9999 NSC 08/03 Q1021
TAF RJNK 231108Z 2312/2418 03010KT 9999 FEW030 
     BECMG 2313/2315 16004KT 
     BECMG 2400/2403 30010KT 
     BECMG 2409/2412 18008KT
       
RJFT 231200Z 08003KT 040V160 CAVOK 12/M01 Q1019
TAF RJFT 231110Z 2312/2418 20005KT 9999 FEW050 
     BECMG 2312/2314 06004KT 
     BECMG 2400/2403 24005KT 
     BECMG 2406/2409 11009KT
       
RJCK 231100Z VRB01KT 9999 FEW006 SCT015 BKN020 02/M02 Q1022
TAF RJCK 231110Z 2312/2418 05003KT 9999 FEW004 BKN015 
     TEMPO 2315/2321 1500 BR FEW002 BKN004 
     TEMPO 2321/2400 FEW003 BKN005 
     BECMG 2322/2400 18008KT 
     BECMG 2406/2409 3000 BR FEW003 BKN005 
     TEMPO 2409/2418 0700 FG VV001
       
RJOM 231200Z 20007KT 9999 FEW030 14/09 Q1019
TAF RJOM 231106Z 2312/2418 12007KT CAVOK 
     BECMG 2322/2400 35012KT 
     BECMG 2409/2412 12007KT
       
RJCM 231100Z 13002KT 9999 FEW010 BKN015 00/M03 Q1022
TAF RJCM 231114Z 2312/2418 14003KT 9999 FEW008 BKN015 
     TEMPO 2312/2318 FEW005 BKN008 
     TEMPO 2318/2321 3000 BR FEW005 BKN008 
     BECMG 2400/2403 05007KT 
     BECMG 2409/2412 19006KT
       
RJOH 231500Z VRB01KT 9999 NSC 09/05 Q1020
TAF RJOH 231107Z 2312/2418 07011KT CAVOK 
     BECMG 2313/2315 18005KT 
     BECMG 2400/2403 05011KT 
     BECMG 2409/2412 18007KT
       
ROMY 231100Z 05005KT 9999 FEW033 20/15 Q1015
RJFM 231200Z 27004KT 9999 FEW030 SCT/// 15/11 Q1019
TAF RJFM 231109Z 2312/2418 13005KT 9999 FEW030 SCT040 
     BECMG 2312/2314 29006KT 
     BECMG 2322/2400 09012KT 
     BECMG 2412/2415 29007KT
       
RJFU 231200Z 30005KT CAVOK 15/06 Q1018
TAF RJFU 231106Z 2312/2418 03004KT 9999 FEW040 
     BECMG 2312/2314 12005KT 
     BECMG 2406/2409 24009KT 
     BECMG 2412/2415 14009KT
       
ROAH 231530Z 08004KT 050V120 9999 FEW040 21/12 Q1016 RMK 1SC040 A3000
TAF ROAH 231105Z 2312/2418 07006KT 9999 FEW030 SCT040 
     BECMG 2406/2409 10008KT
       
RJBD 231000Z 17004KT 140V210 9999 FEW030 15/06 Q1018
RJCC 231539Z 16005KT 0800 R01L/0250V0350N R01R/0300V0400N FZFG SCT001 M00/M00 Q1024 RMK 3ST001 A3024 3000W-NW
TAF AMD RJCC 231510Z 2315/2418 17003KT 9999 FEW003 BKN015 
     TEMPO 2315/2321 0700 FZFG VV001 
     TEMPO 2321/2323 1500 BR FEW001 BKN003 
     BECMG 2400/2403 17015KT 
     BECMG 2415/2418 17005KT
       
RJAA 231530Z VRB02KT 9999 FEW030 BKN060 07/05 Q1024 NOSIG RMK 1CU030 7SC060 A3024
TAF RJAA 231106Z 2312/2418 02006KT 9999 FEW030 
     BECMG 2400/2403 14010KT
       
RJSN 231200Z 05007KT CAVOK 10/05 Q1023
TAF RJSN 231105Z 2312/2418 14005KT 9999 FEW020 
     BECMG 2400/2403 31006KT 
     BECMG 2406/2409 16008KT
       
RJCB 231100Z 14005KT 9999 FEW010 BKN020 03/01 Q1021
TAF RJCB 231106Z 2312/2418 10003KT 9999 FEW003 BKN015 
     TEMPO 2312/2315 1500 BR FEW003 BKN005 
     TEMPO 2315/2322 0700 FG VV001 
     TEMPO 2322/2400 1500 BR FEW003 BKN005 
     TEMPO 2409/2412 1500 BR FEW003 BKN005 
     TEMPO 2412/2418 0700 FG VV001
       
RJSR 231000Z 16004KT 130V200 9999 FEW030 SCT/// 06/03 Q1021
RJFO 231300Z 24003KT CAVOK 10/02 Q1020
TAF RJFO 231110Z 2312/2418 26005KT 9999 FEW040 
     BECMG 2400/2403 12010KT
       
RJOB 231200Z 06002KT CAVOK 13/03 Q1019
TAF RJOB 231108Z 2312/2418 04005KT CAVOK 
     BECMG 2403/2406 17008KT 
     BECMG 2409/2412 08005KT
       
RJOO 231100Z 35009KT CAVOK 14/00 Q1019 RMK A3010
TAF RJOO 231105Z 2312/2418 35006KT CAVOK 
     BECMG 2312/2314 07006KT
       
RJFS 231200Z 30005KT CAVOK 13/07 Q1019
TAF RJFS 231108Z 2312/2418 34005KT 9999 FEW040 
     BECMG 2312/2314 02004KT 
     BECMG 2400/2403 21005KT 
     BECMG 2412/2415 10006KT
       
RJSS 231200Z 16005KT 9999 FEW008 SCT012 BKN015 08/04 Q1023
TAF RJSS 231105Z 2312/2418 14005KT 9999 FEW015 
     BECMG 2312/2314 30004KT 
     BECMG 2322/2400 13012KT 
     BECMG 2412/2415 20004KT
       
RORS 231000Z 04010KT 9999 SCT033 BKN/// 22/15 Q1015
RJSY 231200Z 10004KT 9999 FEW030 05/01 Q1023
RJOT 231200Z 09003KT 040V180 CAVOK 11/04 Q1019
TAF RJOT 231106Z 2312/2418 15006KT CAVOK
       
RJTT 231530Z 10007KT 060V130 9999 FEW030 BKN050 13/06 Q1023 NOSIG RMK 1CU030 7SC050 A3023
TAF RJTT 231107Z 2312/2418 10010KT 9999 FEW020 BKN040 
     BECMG 2318/2320 04006KT 
     BECMG 2400/2403 16012KT
       
RJOR 231200Z 18005KT 9999 FEW025 10/04 Q1020
RJNT 231200Z 22005KT CAVOK 08/04 Q1022
TAF RJNT 231105Z 2312/2418 21005KT 9999 FEW030 
     BECMG 2400/2403 36008KT 
     BECMG 2409/2412 14004KT 
     BECMG 2412/2415 17014KT
       
RJDT 231100Z 17003KT CAVOK 13/06 Q1018
RJSC 231000Z 34006KT 9999 FEW060 08/M01 Q1021
RJDC 231200Z 01003KT 330V050 CAVOK 15/03 Q1019
RJOY 231000Z 35009KT CAVOK 18/M02 Q1017
RJTY 231458Z AUTO 14004KT 10SM CLR 11/04 A3023 RMK AO2 SLP241 T01070039 401900072 52010
TAF RJTY 231300Z 2313/2419 17009KT 9999 BKN040 QNH3020INS 
     BECMG 2402/2403 16010G15KT 9999 SCT040 QNH3025INS TX21/2406Z TN07/2321Z LAST NO AMDS AFT 2313 NEXT 2320
       
ROYN 231500Z AUTO 11004KT 090V150 9999 FEW033 SCT100 BKN130 21/15 Q1016
RORY 231500Z AUTO 07004KT 9999 FEW034 20/15 Q1016